Time;durP1;ratioP1;P1;durP2;ratioP2;P2;SDS_P1;SDS_P2;PMS_P1;PMS_P2;Temp;Humidity;BMP_temperature;BMP_pressure;BME280_temperature;BME280_humidity;BME280_pressure;Samples;Min_cycle;Max_cycle;Signal;HPM_P1;HPM_P2
2021/05/04 00:01:09;;;;;;;9.07;5.43;;;5.40;99.90;;;;;;4976983;28;20162;-74
2021/05/04 00:03:34;;;;;;;8.05;5.18;;;5.50;99.90;;;;;;4970794;28;20086;-74
2021/05/04 00:06:00;;;;;;;6.50;5.32;;;5.60;99.90;;;;;;4972038;28;20162;-74
2021/05/04 00:08:25;;;;;;;8.35;5.50;;;5.60;99.90;;;;;;4972405;28;20099;-74
2021/05/04 00:10:51;;;;;;;7.68;5.55;;;5.50;99.90;;;;;;4985746;28;20079;-75
2021/05/04 00:13:17;;;;;;;7.70;5.25;;;5.60;99.90;;;;;;4988266;28;20099;-74
2021/05/04 00:15:43;;;;;;;7.70;5.50;;;5.60;99.90;;;;;;4975121;28;20133;-75
2021/05/04 00:18:08;;;;;;;11.10;5.85;;;5.60;99.90;;;;;;4990202;28;20082;-74
2021/05/04 00:20:34;;;;;;;7.03;4.70;;;5.70;99.90;;;;;;4989188;28;20121;-75
2021/05/04 00:22:59;;;;;;;6.28;4.65;;;5.70;99.90;;;;;;4992117;28;20165;-74
2021/05/04 00:25:25;;;;;;;7.78;4.65;;;5.70;99.90;;;;;;4981164;28;20079;-74
2021/05/04 00:27:50;;;;;;;8.48;5.00;;;5.70;99.90;;;;;;4984418;28;20109;-73
2021/05/04 00:30:16;;;;;;;6.00;4.47;;;5.80;99.90;;;;;;4977264;28;20090;-74
2021/05/04 00:32:42;;;;;;;5.75;4.25;;;5.90;99.90;;;;;;4991216;28;20173;-74
2021/05/04 00:35:08;;;;;;;5.78;4.32;;;5.80;99.90;;;;;;4990828;28;20665;-74
2021/05/04 00:37:33;;;;;;;5.25;4.45;;;5.80;99.90;;;;;;4986217;28;20081;-74
2021/05/04 00:39:59;;;;;;;8.10;5.20;;;5.80;99.90;;;;;;4984850;28;20525;-74
2021/05/04 00:42:25;;;;;;;6.03;3.97;;;5.80;99.90;;;;;;4981638;28;20075;-74
2021/05/04 00:44:52;;;;;;;6.28;4.55;;;5.80;99.90;;;;;;4984120;28;20067;-74
2021/05/04 00:47:17;;;;;;;5.30;3.90;;;5.80;99.90;;;;;;4989243;28;20083;-74
2021/05/04 00:49:43;;;;;;;5.57;4.10;;;5.80;99.90;;;;;;4991021;28;20083;-74
2021/05/04 00:52:09;;;;;;;5.22;4.00;;;5.80;99.90;;;;;;4989279;28;20080;-74
2021/05/04 00:54:36;;;;;;;6.10;4.28;;;5.80;99.90;;;;;;4985643;28;20130;-74
2021/05/04 00:57:01;;;;;;;5.93;3.90;;;5.70;99.90;;;;;;4987669;28;20071;-74
2021/05/04 00:59:28;;;;;;;5.25;3.47;;;5.80;99.90;;;;;;4983801;28;20474;-74
2021/05/04 01:01:55;;;;;;;5.25;3.00;;;5.70;99.90;;;;;;4984298;28;20162;-75
2021/05/04 01:04:22;;;;;;;4.65;3.75;;;5.80;99.90;;;;;;4989317;28;20145;-75
2021/05/04 01:06:48;;;;;;;4.50;3.83;;;5.80;99.90;;;;;;4988777;28;20087;-74
2021/05/04 01:09:18;;;;;;;5.10;3.80;;;5.80;99.90;;;;;;4981103;28;20107;-75
2021/05/04 01:11:45;;;;;;;4.32;3.42;;;5.80;99.90;;;;;;4976807;28;20084;-74
2021/05/04 01:14:11;;;;;;;4.63;3.60;;;5.70;99.90;;;;;;4986460;28;20174;-74
2021/05/04 01:16:45;;;;;;;5.05;3.33;;;5.80;99.90;;;;;;4989074;28;20121;-74
2021/05/04 01:19:11;;;;;;;3.90;3.35;;;5.70;99.90;;;;;;4979780;28;20098;-74
2021/05/04 01:21:37;;;;;;;5.10;3.97;;;5.70;99.90;;;;;;4988537;28;20079;-74
2021/05/04 01:24:03;;;;;;;4.38;3.50;;;5.80;99.90;;;;;;4981215;28;20518;-75
2021/05/04 01:26:29;;;;;;;5.72;2.97;;;5.90;99.90;;;;;;4990305;28;20143;-74
2021/05/04 01:28:54;;;;;;;3.47;3.05;;;5.80;99.90;;;;;;4980716;28;20099;-74
2021/05/04 01:31:20;;;;;;;4.65;3.20;;;5.80;99.90;;;;;;4989363;28;20078;-74
2021/05/04 01:33:45;;;;;;;6.97;3.85;;;5.80;99.90;;;;;;4968704;28;20166;-74
2021/05/04 01:36:12;;;;;;;6.05;3.33;;;5.80;99.90;;;;;;4973525;28;20082;-74
2021/05/04 01:38:37;;;;;;;4.68;3.25;;;5.80;99.90;;;;;;4971129;28;20090;-74
2021/05/04 01:41:03;;;;;;;4.50;3.22;;;5.80;99.90;;;;;;4985958;28;20110;-74
2021/05/04 01:43:29;;;;;;;2.67;2.38;;;5.80;99.90;;;;;;4984839;28;20133;-74
2021/05/04 01:45:54;;;;;;;4.53;3.53;;;5.80;99.90;;;;;;4973658;28;20075;-74
2021/05/04 01:48:20;;;;;;;5.95;2.95;;;5.70;99.90;;;;;;4971174;28;20110;-74
2021/05/04 01:50:45;;;;;;;4.00;3.55;;;5.80;99.90;;;;;;4984565;28;20162;-74
2021/05/04 01:53:11;;;;;;;5.10;3.45;;;5.70;99.90;;;;;;4970854;28;20097;-74
2021/05/04 01:55:36;;;;;;;3.97;2.72;;;5.80;99.90;;;;;;4977673;28;20129;-74
2021/05/04 01:58:02;;;;;;;3.63;2.92;;;5.80;99.90;;;;;;4988706;28;20075;-74
2021/05/04 02:00:28;;;;;;;3.97;3.35;;;5.70;99.90;;;;;;4989502;28;20105;-75
2021/05/04 02:02:53;;;;;;;3.78;2.80;;;5.70;99.90;;;;;;4983222;28;20087;-75
2021/05/04 02:05:19;;;;;;;6.75;2.97;;;5.70;99.90;;;;;;4968605;28;20075;-75
2021/05/04 02:07:44;;;;;;;6.50;3.28;;;5.70;99.90;;;;;;4967820;28;20083;-74
2021/05/04 02:10:11;;;;;;;4.43;2.70;;;5.80;99.90;;;;;;4969867;28;20099;-74
2021/05/04 02:12:38;;;;;;;3.50;2.60;;;5.70;99.90;;;;;;4970185;28;20099;-74
2021/05/04 02:15:04;;;;;;;3.38;3.08;;;5.70;99.90;;;;;;4985304;28;20079;-75
2021/05/04 02:17:29;;;;;;;2.70;2.30;;;5.80;99.90;;;;;;4967487;28;20118;-74
2021/05/04 02:19:55;;;;;;;4.03;2.97;;;5.80;99.90;;;;;;4968430;28;20115;-75
2021/05/04 02:22:20;;;;;;;3.45;2.70;;;5.70;99.90;;;;;;4969386;28;20083;-75
2021/05/04 02:24:47;;;;;;;4.30;2.83;;;5.70;99.90;;;;;;4969335;28;20147;-74
2021/05/04 02:27:13;;;;;;;3.35;2.80;;;5.70;99.90;;;;;;4969103;28;20075;-74
2021/05/04 02:29:38;;;;;;;3.88;2.28;;;5.80;99.90;;;;;;4969046;28;20495;-74
2021/05/04 02:32:04;;;;;;;3.28;2.47;;;5.80;99.90;;;;;;4971353;28;20447;-74
2021/05/04 02:34:30;;;;;;;2.67;2.47;;;5.70;99.90;;;;;;4969765;28;20126;-74
2021/05/04 02:36:55;;;;;;;2.65;2.42;;;5.60;99.90;;;;;;4969976;28;20510;-75
2021/05/04 02:39:21;;;;;;;3.30;2.70;;;5.60;99.90;;;;;;4969417;28;20095;-74
2021/05/04 02:41:46;;;;;;;3.47;2.30;;;5.60;99.90;;;;;;4968795;28;20087;-75
2021/05/04 02:44:12;;;;;;;3.78;2.05;;;5.60;99.90;;;;;;4969292;28;20075;-74
2021/05/04 02:46:37;;;;;;;2.63;2.15;;;5.70;99.90;;;;;;4968563;28;20487;-75
2021/05/04 02:49:03;;;;;;;2.88;2.42;;;5.70;99.90;;;;;;4968863;28;20448;-74
2021/05/04 02:51:28;;;;;;;3.47;2.60;;;5.60;99.90;;;;;;4969286;28;20072;-74
2021/05/04 02:53:55;;;;;;;2.45;2.25;;;5.50;99.90;;;;;;4971580;28;20494;-75
2021/05/04 02:56:21;;;;;;;7.30;2.33;;;5.40;99.90;;;;;;4965513;28;20075;-75
2021/05/04 02:58:46;;;;;;;3.03;2.40;;;5.40;99.90;;;;;;4986307;28;20094;-74
2021/05/04 03:01:12;;;;;;;2.88;2.10;;;5.50;99.90;;;;;;4969287;28;20536;-74
2021/05/04 03:03:39;;;;;;;5.53;2.70;;;5.40;99.90;;;;;;4970662;28;20135;-73
2021/05/04 03:06:05;;;;;;;3.10;2.70;;;5.50;99.90;;;;;;4969029;28;20099;-74
2021/05/04 03:08:32;;;;;;;2.90;2.50;;;5.50;99.90;;;;;;4970432;28;20536;-74
2021/05/04 03:10:58;;;;;;;2.55;2.35;;;5.40;99.90;;;;;;4971149;28;20076;-74
2021/05/04 03:13:25;;;;;;;4.38;2.92;;;5.40;99.90;;;;;;4975502;28;20168;-75
2021/05/04 03:15:51;;;;;;;3.42;2.38;;;5.60;99.90;;;;;;4967780;28;20163;-74
2021/05/04 03:18:17;;;;;;;3.70;2.65;;;5.50;99.90;;;;;;4969280;28;20095;-74
2021/05/04 03:20:43;;;;;;;3.10;2.80;;;5.40;99.90;;;;;;4969343;28;20079;-74
2021/05/04 03:23:09;;;;;;;3.97;2.35;;;5.40;99.90;;;;;;4968320;28;20122;-74
2021/05/04 03:25:35;;;;;;;3.28;2.17;;;5.50;99.90;;;;;;4973632;28;20086;-75
2021/05/04 03:28:01;;;;;;;3.53;2.42;;;5.50;99.90;;;;;;4974272;28;20079;-74
2021/05/04 03:30:27;;;;;;;2.78;2.58;;;5.50;99.90;;;;;;4975992;28;20286;-74
2021/05/04 03:32:53;;;;;;;4.05;2.15;;;5.50;99.90;;;;;;4972701;28;20092;-74
2021/05/04 03:35:19;;;;;;;4.85;2.28;;;5.40;99.90;;;;;;4974170;28;20063;-74
2021/05/04 03:37:46;;;;;;;2.60;2.30;;;5.40;99.90;;;;;;4971967;28;20446;-74
2021/05/04 03:40:11;;;;;;;3.13;2.00;;;5.40;99.90;;;;;;4980722;28;20087;-74
2021/05/04 03:42:37;;;;;;;4.60;2.53;;;5.40;99.90;;;;;;4974007;28;20089;-74
2021/05/04 03:45:04;;;;;;;2.95;2.10;;;5.50;99.90;;;;;;4992929;28;20114;-74
2021/05/04 03:47:30;;;;;;;3.60;2.80;;;5.50;99.90;;;;;;4978461;28;20083;-74
2021/05/04 03:49:55;;;;;;;2.78;2.45;;;5.40;99.90;;;;;;4973398;28;20087;-74
2021/05/04 03:52:21;;;;;;;4.28;2.30;;;5.50;99.90;;;;;;4972956;28;20079;-74
2021/05/04 03:54:47;;;;;;;2.40;2.20;;;5.50;99.90;;;;;;4990187;28;20075;-75
2021/05/04 03:57:12;;;;;;;3.10;2.20;;;5.50;99.90;;;;;;4973806;28;20118;-74
2021/05/04 03:59:39;;;;;;;3.20;2.25;;;5.50;99.90;;;;;;4977925;28;20106;-74
2021/05/04 04:02:04;;;;;;;3.22;2.10;;;5.50;99.90;;;;;;4970363;28;20520;-74
2021/05/04 04:04:30;;;;;;;3.72;2.33;;;5.50;99.90;;;;;;4977199;28;20086;-75
2021/05/04 04:06:56;;;;;;;2.58;2.33;;;5.50;99.90;;;;;;4973654;28;20083;-74
2021/05/04 04:09:21;;;;;;;4.07;2.22;;;5.50;99.90;;;;;;4977917;28;20110;-74
2021/05/04 04:11:47;;;;;;;5.07;2.53;;;5.50;99.90;;;;;;4986536;28;20079;-75
2021/05/04 04:14:12;;;;;;;3.40;2.20;;;5.50;99.90;;;;;;4986464;28;20084;-74
2021/05/04 04:16:38;;;;;;;4.60;3.33;;;5.60;99.90;;;;;;4983507;28;20083;-74
2021/05/04 04:19:03;;;;;;;2.80;2.22;;;5.60;99.90;;;;;;4981381;28;20095;-74
2021/05/04 04:21:29;;;;;;;2.85;2.13;;;5.70;99.90;;;;;;4989272;28;20492;-75
2021/05/04 04:23:54;;;;;;;3.33;2.63;;;5.70;99.90;;;;;;4982663;28;20110;-75
2021/05/04 04:26:20;;;;;;;3.05;2.13;;;5.70;99.90;;;;;;4988789;28;20079;-74
2021/05/04 04:28:45;;;;;;;2.70;2.30;;;5.80;99.90;;;;;;4978745;28;20559;-74
2021/05/04 04:31:11;;;;;;;4.38;2.22;;;5.70;99.90;;;;;;4982003;28;20795;-75
2021/05/04 04:33:37;;;;;;;2.53;2.00;;;5.70;99.90;;;;;;4979348;28;20103;-75
2021/05/04 04:36:03;;;;;;;2.42;2.22;;;5.80;99.90;;;;;;4977620;28;20133;-74
2021/05/04 04:38:28;;;;;;;2.60;2.20;;;5.80;99.90;;;;;;4973186;28;20095;-74
2021/05/04 04:40:54;;;;;;;2.78;1.73;;;5.90;99.90;;;;;;4981620;28;20082;-74
2021/05/04 04:43:19;;;;;;;2.65;2.30;;;5.90;99.90;;;;;;4986215;28;20134;-74
2021/05/04 04:45:45;;;;;;;4.20;2.55;;;5.90;99.90;;;;;;4983145;28;20610;-75
2021/05/04 04:48:10;;;;;;;2.92;2.13;;;6.00;99.90;;;;;;4992016;28;20075;-74
2021/05/04 04:50:36;;;;;;;2.63;2.42;;;6.00;99.90;;;;;;4988286;28;20162;-76
2021/05/04 04:53:03;;;;;;;3.03;2.10;;;6.10;99.90;;;;;;4972762;28;20118;-75
2021/05/04 04:55:28;;;;;;;4.10;1.95;;;6.10;99.90;;;;;;4976328;28;20162;-76
2021/05/04 04:57:54;;;;;;;2.92;2.47;;;6.30;99.90;;;;;;4983422;28;20540;-75
2021/05/04 05:00:20;;;;;;;3.92;2.85;;;6.40;99.90;;;;;;4980687;28;20133;-74
2021/05/04 05:02:46;;;;;;;2.55;2.30;;;6.60;99.90;;;;;;4985561;28;20130;-75
2021/05/04 05:05:12;;;;;;;6.35;2.47;;;6.70;99.90;;;;;;4972123;28;20535;-75
2021/05/04 05:07:37;;;;;;;3.33;2.38;;;6.80;99.90;;;;;;4977758;28;20075;-74
2021/05/04 05:10:03;;;;;;;3.05;2.05;;;7.00;99.90;;;;;;4988898;28;20105;-74
2021/05/04 05:12:29;;;;;;;2.45;2.20;;;7.10;99.90;;;;;;4987874;28;20078;-74
2021/05/04 05:14:55;;;;;;;2.35;2.10;;;7.40;99.90;;;;;;4985399;28;20071;-75
2021/05/04 05:17:21;;;;;;;4.07;2.15;;;7.50;99.90;;;;;;4969405;28;20079;-75
2021/05/04 05:19:46;;;;;;;1.92;1.55;;;7.70;99.90;;;;;;4977905;28;20091;-75
2021/05/04 05:22:12;;;;;;;1.95;1.75;;;7.80;99.90;;;;;;4985177;28;20079;-74
2021/05/04 05:24:39;;;;;;;3.53;2.03;;;7.80;99.90;;;;;;4974878;28;20080;-74
2021/05/04 05:27:05;;;;;;;4.50;2.10;;;7.80;99.90;;;;;;4977993;28;20129;-75
2021/05/04 05:29:31;;;;;;;2.67;1.75;;;7.80;99.90;;;;;;4978840;28;20506;-73
2021/05/04 05:31:57;;;;;;;2.13;1.60;;;7.90;99.90;;;;;;4988572;28;20163;-74
2021/05/04 05:34:23;;;;;;;3.22;1.73;;;7.90;99.90;;;;;;4987946;28;20575;-74
2021/05/04 05:36:49;;;;;;;3.58;2.00;;;8.00;99.90;;;;;;4979295;28;20070;-73
2021/05/04 05:39:16;;;;;;;1.98;1.73;;;8.10;99.90;;;;;;4988312;28;20579;-74
2021/05/04 05:41:42;;;;;;;2.05;1.70;;;8.10;99.90;;;;;;4988084;28;20071;-74
2021/05/04 05:44:07;;;;;;;4.03;1.88;;;8.20;99.90;;;;;;4978544;28;20094;-74
2021/05/04 05:46:33;;;;;;;2.90;1.38;;;8.30;99.90;;;;;;4988914;28;20075;-74
2021/05/04 05:48:59;;;;;;;3.10;1.77;;;8.50;99.90;;;;;;4979512;28;20177;-74
2021/05/04 05:51:25;;;;;;;2.40;1.55;;;8.70;99.90;;;;;;4986167;28;20087;-72
2021/05/04 05:53:52;;;;;;;1.98;1.65;;;9.10;99.90;;;;;;4985936;28;20559;-73
2021/05/04 05:56:18;;;;;;;1.77;1.27;;;9.20;99.90;;;;;;4982954;28;20079;-73
2021/05/04 05:58:44;;;;;;;1.70;1.42;;;9.50;99.90;;;;;;4979503;28;20237;-73
2021/05/04 06:01:09;;;;;;;2.55;1.70;;;9.70;99.90;;;;;;4988984;28;20102;-73
2021/05/04 06:03:35;;;;;;;2.10;1.70;;;9.70;99.90;;;;;;4978946;28;20157;-74
2021/05/04 06:06:00;;;;;;;2.67;1.40;;;9.70;99.90;;;;;;4990083;28;20089;-74
2021/05/04 06:08:27;;;;;;;3.28;1.63;;;9.70;99.90;;;;;;4975902;28;20101;-75
2021/05/04 06:10:53;;;;;;;3.08;1.77;;;9.70;99.90;;;;;;4978659;28;20125;-74
2021/05/04 06:13:19;;;;;;;2.00;1.55;;;9.80;99.90;;;;;;4988890;28;20087;-74
2021/05/04 06:15:45;;;;;;;3.50;2.00;;;9.80;99.90;;;;;;4974857;28;20075;-80
2021/05/04 06:18:12;;;;;;;2.30;1.27;;;10.10;99.90;;;;;;4990378;28;20093;-77
2021/05/04 06:20:38;;;;;;;3.13;1.33;;;10.30;99.90;;;;;;4972921;28;20093;-78
2021/05/04 06:23:04;;;;;;;2.55;1.05;;;10.50;99.90;;;;;;4989624;28;20067;-74
2021/05/04 06:25:31;;;;;;;1.85;1.48;;;10.60;99.90;;;;;;4980476;28;20482;-73
2021/05/04 06:28:00;;;;;;;2.40;1.45;;;10.80;99.90;;;;;;4970351;28;20071;-73
2021/05/04 06:30:27;;;;;;;1.60;1.27;;;10.80;99.90;;;;;;4979417;28;20118;-73
2021/05/04 06:32:53;;;;;;;1.85;1.63;;;11.00;99.90;;;;;;4971945;28;20088;-73
2021/05/04 06:35:20;;;;;;;4.93;1.20;;;11.30;99.20;;;;;;4973790;28;20076;-74
2021/05/04 06:37:46;;;;;;;3.55;1.50;;;11.20;98.30;;;;;;4984417;28;20095;-73
2021/05/04 06:40:13;;;;;;;3.60;1.33;;;11.30;98.60;;;;;;4970437;28;20145;-73
2021/05/04 06:42:39;;;;;;;2.75;1.80;;;11.40;98.60;;;;;;4974357;28;20075;-73
2021/05/04 06:45:06;;;;;;;1.52;1.42;;;11.40;99.50;;;;;;4988468;28;20067;-73
2021/05/04 06:47:31;;;;;;;1.80;1.48;;;11.40;98.00;;;;;;4988653;28;20125;-73
2021/05/04 06:49:57;;;;;;;4.28;1.67;;;11.50;98.50;;;;;;4983116;28;20086;-74
2021/05/04 06:52:22;;;;;;;2.90;1.40;;;11.40;99.50;;;;;;4969651;28;20514;-73
2021/05/04 06:54:48;;;;;;;3.53;1.25;;;11.20;99.30;;;;;;4967271;28;20535;-73
2021/05/04 06:57:13;;;;;;;2.55;1.35;;;11.30;98.40;;;;;;4981941;28;20089;-75
2021/05/04 06:59:39;;;;;;;1.40;1.20;;;11.40;98.20;;;;;;4971634;28;20466;-73
2021/05/04 07:02:04;;;;;;;1.67;1.15;;;11.50;97.70;;;;;;4969945;28;20094;-73
2021/05/04 07:04:30;;;;;;;1.90;1.10;;;11.50;98.20;;;;;;4988220;28;20086;-74
2021/05/04 07:06:56;;;;;;;1.77;1.45;;;11.50;98.50;;;;;;4978677;28;20137;-74
2021/05/04 07:09:21;;;;;;;1.77;1.30;;;11.50;98.60;;;;;;4979991;28;20103;-74
2021/05/04 07:11:47;;;;;;;1.60;1.50;;;11.60;99.10;;;;;;4979792;28;20459;-74
2021/05/04 07:14:12;;;;;;;1.95;1.40;;;11.70;98.60;;;;;;4988613;28;20578;-74
2021/05/04 07:16:39;;;;;;;4.00;1.48;;;11.90;96.80;;;;;;4991384;28;20082;-74
2021/05/04 07:19:05;;;;;;;4.18;1.40;;;11.80;97.10;;;;;;4982065;28;20170;-77
2021/05/04 07:21:31;;;;;;;2.10;1.10;;;11.80;99.00;;;;;;4975725;28;20579;-75
2021/05/04 07:23:56;;;;;;;1.63;1.30;;;11.60;99.40;;;;;;4973721;28;20098;-74
2021/05/04 07:26:22;;;;;;;2.40;1.92;;;11.80;98.40;;;;;;4978771;28;20141;-74
2021/05/04 07:28:47;;;;;;;5.13;1.55;;;11.90;98.30;;;;;;4974183;28;20099;-74
2021/05/04 07:31:13;;;;;;;1.33;1.23;;;12.00;96.80;;;;;;4971482;28;20083;-73
2021/05/04 07:33:38;;;;;;;2.10;1.48;;;11.80;98.60;;;;;;4972275;28;20103;-74
2021/05/04 07:36:05;;;;;;;1.30;1.10;;;12.00;99.20;;;;;;4985992;28;20079;-74
2021/05/04 07:38:31;;;;;;;1.70;1.40;;;12.10;97.30;;;;;;4986103;28;20122;-73
2021/05/04 07:40:56;;;;;;;1.33;1.15;;;12.30;95.60;;;;;;4979282;28;20767;-73
2021/05/04 07:43:22;;;;;;;1.15;1.05;;;12.30;96.70;;;;;;4973076;28;20137;-73
2021/05/04 07:45:48;;;;;;;1.75;1.13;;;12.20;97.70;;;;;;4978975;28;20113;-74
2021/05/04 07:48:15;;;;;;;6.18;1.45;;;12.30;96.60;;;;;;4975460;28;20157;-74
2021/05/04 07:50:41;;;;;;;1.95;1.20;;;12.40;96.50;;;;;;4978239;28;20075;-73
2021/05/04 07:53:07;;;;;;;8.85;2.00;;;12.40;96.90;;;;;;4978563;28;20142;-73
2021/05/04 07:55:33;;;;;;;2.03;1.80;;;12.40;96.90;;;;;;4980789;28;20070;-73
2021/05/04 07:57:59;;;;;;;3.38;1.55;;;12.60;96.70;;;;;;4988983;28;20078;-73
2021/05/04 08:00:25;;;;;;;5.82;1.63;;;12.70;94.50;;;;;;4974117;28;20110;-74
2021/05/04 08:02:50;;;;;;;2.70;1.42;;;12.80;96.30;;;;;;4972385;28;20079;-73
2021/05/04 08:05:16;;;;;;;2.13;1.60;;;12.80;96.30;;;;;;4971852;28;20135;-74
2021/05/04 08:07:41;;;;;;;2.10;1.17;;;13.00;95.20;;;;;;4969037;28;20087;-73
2021/05/04 08:10:08;;;;;;;4.00;1.30;;;13.10;93.00;;;;;;4971534;28;20103;-73
2021/05/04 08:12:34;;;;;;;2.10;1.60;;;13.10;93.30;;;;;;4971809;28;20678;-73
2021/05/04 08:15:01;;;;;;;2.17;1.23;;;13.10;94.30;;;;;;4990638;28;20083;-74
2021/05/04 08:17:29;;;;;;;1.63;1.20;;;13.20;94.60;;;;;;4973696;28;20075;-74
2021/05/04 08:19:59;;;;;;;1.45;1.35;;;13.10;93.00;;;;;;4972367;28;20090;-74
2021/05/04 08:22:25;;;;;;;4.80;1.17;;;13.10;93.70;;;;;;4970893;28;20187;-73
2021/05/04 08:24:51;;;;;;;2.13;1.90;;;13.20;94.30;;;;;;4972554;28;20665;-74
2021/05/04 08:27:16;;;;;;;2.47;1.10;;;13.40;94.80;;;;;;4980020;28;20075;-74
2021/05/04 08:29:42;;;;;;;1.70;1.35;;;13.60;93.10;;;;;;4969450;28;20102;-75
2021/05/04 08:32:07;;;;;;;4.35;1.30;;;13.60;93.30;;;;;;4971414;28;20083;-74
2021/05/04 08:34:33;;;;;;;2.03;1.17;;;13.70;93.90;;;;;;4975245;28;20547;-75
2021/05/04 08:37:00;;;;;;;2.47;1.80;;;13.80;93.40;;;;;;4977136;28;20153;-74
2021/05/04 08:39:26;;;;;;;1.90;1.15;;;13.80;93.20;;;;;;4979364;28;20456;-74
2021/05/04 08:41:51;;;;;;;1.83;1.23;;;13.90;93.40;;;;;;4970316;28;20072;-73
2021/05/04 08:44:19;;;;;;;4.60;1.35;;;14.00;93.50;;;;;;4971199;28;20681;-74
2021/05/04 08:46:49;;;;;;;2.35;1.50;;;14.10;93.20;;;;;;4978442;28;20154;-74
2021/05/04 08:49:16;;;;;;;4.55;1.33;;;14.30;91.80;;;;;;4977370;28;20126;-74
2021/05/04 08:51:43;;;;;;;2.00;1.20;;;14.40;92.60;;;;;;4971076;28;20170;-74
2021/05/04 08:54:09;;;;;;;2.25;1.50;;;14.50;91.60;;;;;;4970685;28;20138;-74
2021/05/04 08:56:35;;;;;;;1.95;1.40;;;14.50;90.40;;;;;;4980782;28;20142;-74
2021/05/04 08:59:02;;;;;;;1.90;1.50;;;14.40;91.00;;;;;;4985686;28;20586;-74
2021/05/04 09:01:28;;;;;;;2.67;1.65;;;14.40;90.40;;;;;;4970729;28;20607;-74
2021/05/04 09:03:59;;;;;;;3.05;1.45;;;14.30;89.00;;;;;;4970202;28;20083;-73
2021/05/04 09:06:39;;;;;;;4.13;1.38;;;14.30;92.10;;;;;;4972936;28;20087;-74
2021/05/04 09:09:16;;;;;;;1.65;1.23;;;14.30;90.90;;;;;;4971660;28;20087;-74
2021/05/04 09:12:07;;;;;;;6.22;1.60;;;14.40;91.40;;;;;;4972844;28;20106;-73
2021/05/04 09:22:43;;;;;;;3.22;1.52;;;14.90;89.80;;;;;;4976714;28;20099;-74
2021/05/04 09:25:34;;;;;;;1.70;1.27;;;15.00;92.70;;;;;;4980913;28;20086;-74
2021/05/04 09:28:10;;;;;;;1.55;1.40;;;15.10;91.70;;;;;;4967787;28;20106;-74
2021/05/04 09:30:36;;;;;;;1.88;1.40;;;15.30;91.90;;;;;;4977192;28;20606;-74
2021/05/04 09:33:13;;;;;;;2.97;1.30;;;15.40;90.20;;;;;;4980252;28;20123;-74
2021/05/04 09:35:39;;;;;;;2.20;1.63;;;15.40;84.70;;;;;;4988018;28;20539;-74
2021/05/04 09:38:10;;;;;;;3.13;1.40;;;15.40;88.60;;;;;;4980716;28;20083;-74
2021/05/04 09:40:37;;;;;;;2.58;1.30;;;15.30;87.30;;;;;;4983245;28;20083;-74
2021/05/04 09:43:12;;;;;;;2.50;1.40;;;15.10;89.50;;;;;;4981822;28;20085;-74
2021/05/04 09:45:48;;;;;;;2.63;2.03;;;15.20;90.60;;;;;;4975755;28;20082;-74
2021/05/04 09:48:34;;;;;;;3.40;1.30;;;15.50;87.00;;;;;;4977697;28;20087;-74
2021/05/04 09:51:11;;;;;;;2.20;1.35;;;15.60;83.60;;;;;;4972261;28;20083;-75
2021/05/04 09:53:42;;;;;;;3.50;1.42;;;15.50;90.00;;;;;;4973028;28;20471;-74
2021/05/04 09:56:10;;;;;;;1.60;1.20;;;15.60;82.40;;;;;;4984161;28;20086;-75
2021/05/04 09:58:41;;;;;;;1.95;1.17;;;15.90;86.80;;;;;;4981611;28;20122;-74
2021/05/04 10:01:09;;;;;;;1.60;1.33;;;15.90;84.20;;;;;;4985575;28;20136;-74
2021/05/04 10:03:36;;;;;;;1.67;1.20;;;16.00;82.80;;;;;;4981806;28;20082;-74
2021/05/04 10:06:04;;;;;;;1.98;1.38;;;16.30;83.30;;;;;;4974921;28;20186;-75
2021/05/04 10:08:32;;;;;;;1.88;1.20;;;16.10;78.00;;;;;;4978990;28;20563;-74
2021/05/04 10:11:10;;;;;;;1.45;1.15;;;15.90;78.00;;;;;;4983184;28;20075;-73
2021/05/04 10:13:38;;;;;;;3.13;1.35;;;16.00;78.30;;;;;;4979549;28;20091;-74
2021/05/04 10:16:06;;;;;;;3.22;0.95;;;16.20;77.60;;;;;;4974668;28;20075;-74
2021/05/04 10:18:32;;;;;;;4.63;1.20;;;16.20;77.40;;;;;;4979957;28;20161;-73
2021/05/04 10:21:00;;;;;;;3.08;1.33;;;16.20;79.30;;;;;;4987066;28;20121;-74
2021/05/04 10:23:27;;;;;;;2.30;0.93;;;16.10;74.50;;;;;;4982545;28;20078;-74
2021/05/04 10:25:58;;;;;;;1.50;1.17;;;16.00;79.40;;;;;;4982556;28;20086;-74
2021/05/04 10:28:32;;;;;;;1.83;1.40;;;16.00;78.60;;;;;;4976966;28;20083;-74
2021/05/04 10:31:03;;;;;;;2.38;1.33;;;16.30;78.70;;;;;;4989135;28;20074;-74
2021/05/04 10:33:35;;;;;;;3.28;1.00;;;16.30;82.70;;;;;;4983848;28;20240;-75
2021/05/04 10:36:02;;;;;;;2.15;1.23;;;16.40;73.30;;;;;;4971982;28;20075;-74
2021/05/04 10:38:52;;;;;;;4.78;1.20;;;16.30;74.20;;;;;;4975128;28;20087;-74
2021/05/04 10:41:19;;;;;;;1.15;0.90;;;16.40;68.30;;;;;;4980424;28;20132;-74
2021/05/04 10:43:44;;;;;;;3.58;1.38;;;16.40;71.60;;;;;;4974144;28;20141;-73
2021/05/04 10:46:34;;;;;;;2.92;1.38;;;16.50;70.70;;;;;;4972173;28;20837;-75
2021/05/04 10:48:59;;;;;;;1.60;1.23;;;16.60;66.70;;;;;;4980044;28;20095;-74
2021/05/04 10:51:52;;;;;;;1.67;1.08;;;16.60;66.90;;;;;;4970003;28;20094;-75
2021/05/04 10:54:19;;;;;;;3.42;1.75;;;16.60;67.80;;;;;;4967177;28;20130;-75
2021/05/04 10:56:46;;;;;;;2.42;1.05;;;16.70;70.60;;;;;;4987817;28;20506;-80
2021/05/04 10:59:37;;;;;;;2.22;1.30;;;16.80;67.60;;;;;;4974458;28;20129;-74
2021/05/04 11:02:09;;;;;;;1.50;1.00;;;16.90;61.90;;;;;;4976362;28;20075;-74
2021/05/04 11:04:42;;;;;;;2.22;1.25;;;16.90;64.90;;;;;;4971948;28;20078;-75
2021/05/04 11:07:08;;;;;;;1.33;1.10;;;17.00;70.90;;;;;;4970818;28;20120;-75
2021/05/04 11:09:40;;;;;;;2.35;1.25;;;17.00;63.00;;;;;;4981877;28;20652;-74
2021/05/04 11:12:07;;;;;;;1.75;1.25;;;17.00;65.40;;;;;;4988983;28;20078;-78
2021/05/04 11:14:35;;;;;;;2.47;1.35;;;17.00;67.20;;;;;;4976915;28;20555;-74
2021/05/04 11:17:04;;;;;;;2.30;0.90;;;16.90;67.00;;;;;;4974446;28;20560;-74
2021/05/04 11:19:32;;;;;;;2.42;1.13;;;16.90;70.10;;;;;;4973201;28;20094;-73
2021/05/04 11:21:57;;;;;;;3.40;1.50;;;16.90;67.10;;;;;;4968307;28;20078;-73
2021/05/04 11:24:28;;;;;;;1.33;1.20;;;16.90;62.80;;;;;;4968099;28;20079;-73
2021/05/04 11:27:09;;;;;;;2.42;1.27;;;16.90;67.00;;;;;;4968019;28;20079;-74
2021/05/04 11:29:34;;;;;;;2.38;1.27;;;17.00;73.70;;;;;;4973141;28;20099;-74
2021/05/04 11:32:12;;;;;;;2.15;1.15;;;17.00;69.20;;;;;;4970609;28;20079;-75
2021/05/04 11:34:39;;;;;;;2.33;1.50;;;17.20;68.10;;;;;;4990513;28;20101;-77
2021/05/04 11:37:10;;;;;;;1.73;1.15;;;17.10;71.70;;;;;;4973587;28;20144;-74
2021/05/04 11:39:58;;;;;;;3.95;1.27;;;17.10;68.60;;;;;;4978711;28;20082;-74
2021/05/04 11:42:39;;;;;;;1.38;0.80;;;17.10;66.90;;;;;;4969101;28;20071;-74
2021/05/04 11:45:20;;;;;;;2.53;1.02;;;17.00;65.90;;;;;;4982352;28;20070;-73
2021/05/04 11:47:47;;;;;;;3.60;2.15;;;17.10;67.80;;;;;;4968866;28;20091;-75
2021/05/04 11:50:20;;;;;;;3.35;0.85;;;17.10;65.70;;;;;;4976490;28;20088;-73
2021/05/04 11:52:48;;;;;;;1.33;1.00;;;17.00;69.10;;;;;;4969399;28;20142;-73
2021/05/04 11:55:15;;;;;;;1.58;0.77;;;17.10;71.50;;;;;;4987621;28;20071;-75
2021/05/04 11:57:43;;;;;;;2.78;1.15;;;16.90;67.70;;;;;;4975305;28;20083;-73
2021/05/04 12:00:14;;;;;;;3.58;0.90;;;16.90;64.50;;;;;;4972269;28;20829;-74
2021/05/04 12:02:40;;;;;;;1.55;1.08;;;16.90;71.50;;;;;;4991183;28;20079;-74
2021/05/04 12:05:07;;;;;;;5.47;1.15;;;17.00;68.60;;;;;;4990929;28;20444;-73
2021/05/04 12:07:44;;;;;;;1.42;1.10;;;17.10;70.90;;;;;;4973741;28;20071;-74
2021/05/04 12:10:16;;;;;;;1.30;1.00;;;17.10;73.50;;;;;;4971446;28;20556;-73
2021/05/04 12:12:44;;;;;;;5.15;1.33;;;17.20;71.40;;;;;;4973999;28;20446;-71
2021/05/04 12:15:15;;;;;;;1.23;0.75;;;17.30;67.90;;;;;;4986580;28;20421;-73
2021/05/04 12:17:41;;;;;;;2.03;1.10;;;17.40;72.30;;;;;;4975580;28;20075;-73
2021/05/04 12:20:17;;;;;;;2.35;1.05;;;17.50;70.00;;;;;;4974227;28;20083;-75
2021/05/04 12:22:51;;;;;;;1.33;0.98;;;17.50;70.10;;;;;;4990567;28;20081;-81
2021/05/04 12:25:21;;;;;;;2.53;1.00;;;17.40;67.20;;;;;;4979136;28;20125;-72
2021/05/04 12:27:46;;;;;;;1.58;0.93;;;17.40;67.40;;;;;;4970603;28;20634;-74
2021/05/04 12:30:18;;;;;;;2.92;0.80;;;17.50;69.10;;;;;;4975393;28;20087;-73
2021/05/04 12:32:44;;;;;;;1.35;0.90;;;17.50;68.20;;;;;;4977021;28;20557;-74
2021/05/04 12:35:29;;;;;;;1.13;1.00;;;17.70;69.00;;;;;;4986557;28;20109;-74
2021/05/04 12:38:22;;;;;;;1.98;0.80;;;17.70;73.90;;;;;;4991171;28;20071;-73
2021/05/04 12:40:52;;;;;;;3.13;1.10;;;17.50;74.80;;;;;;4980528;28;20078;-74
2021/05/04 12:43:23;;;;;;;3.25;1.08;;;17.60;67.10;;;;;;4973910;28;20086;-72
2021/05/04 12:46:10;;;;;;;1.08;0.90;;;17.60;67.20;;;;;;4970931;28;20106;-73
2021/05/04 12:48:38;;;;;;;3.40;1.23;;;17.60;68.50;;;;;;4979705;28;20736;-73
2021/05/04 12:51:09;;;;;;;3.15;0.82;;;17.50;63.40;;;;;;4982193;28;20078;-73
2021/05/04 12:53:38;;;;;;;1.15;1.05;;;17.50;67.60;;;;;;4983719;28;20095;-73
2021/05/04 12:56:15;;;;;;;1.10;1.00;;;17.50;64.90;;;;;;4982249;28;20063;-73
2021/05/04 12:58:53;;;;;;;3.08;0.80;;;17.50;65.70;;;;;;4979326;28;20193;-75
2021/05/04 13:01:19;;;;;;;1.65;0.85;;;17.50;67.40;;;;;;4971095;28;20554;-74
2021/05/04 13:03:52;;;;;;;1.42;1.10;;;17.40;63.60;;;;;;4982767;28;20115;-74